sensor_id;sensor_type;location;lat;lon;timestamp;temperature;humidity
23065;DHT22;17153;51.212;3.228;2022-07-29T00:02:25;23.50;86.10
23065;DHT22;17153;51.212;3.228;2022-07-29T00:04:51;23.50;86.20
23065;DHT22;17153;51.212;3.228;2022-07-29T00:07:16;23.50;86.20
23065;DHT22;17153;51.212;3.228;2022-07-29T00:09:42;23.50;86.20
23065;DHT22;17153;51.212;3.228;2022-07-29T00:12:08;23.50;86.30
23065;DHT22;17153;51.212;3.228;2022-07-29T00:14:34;23.40;86.30
23065;DHT22;17153;51.212;3.228;2022-07-29T00:17:00;23.50;86.40
23065;DHT22;17153;51.212;3.228;2022-07-29T00:19:25;23.40;86.20
23065;DHT22;17153;51.212;3.228;2022-07-29T00:21:51;23.40;86.20
23065;DHT22;17153;51.212;3.228;2022-07-29T00:24:17;23.40;87.00
23065;DHT22;17153;51.212;3.228;2022-07-29T00:26:43;23.40;86.20
23065;DHT22;17153;51.212;3.228;2022-07-29T00:29:08;23.40;86.20
23065;DHT22;17153;51.212;3.228;2022-07-29T00:31:34;23.30;86.20
23065;DHT22;17153;51.212;3.228;2022-07-29T00:34:16;23.30;86.20
23065;DHT22;17153;51.212;3.228;2022-07-29T00:37:15;23.30;86.30
23065;DHT22;17153;51.212;3.228;2022-07-29T00:39:41;23.30;86.40
23065;DHT22;17153;51.212;3.228;2022-07-29T00:42:07;23.30;86.40
23065;DHT22;17153;51.212;3.228;2022-07-29T00:44:41;23.20;86.40
23065;DHT22;17153;51.212;3.228;2022-07-29T00:47:16;23.20;86.40
23065;DHT22;17153;51.212;3.228;2022-07-29T00:49:42;23.20;86.40
23065;DHT22;17153;51.212;3.228;2022-07-29T00:52:09;23.20;86.50
23065;DHT22;17153;51.212;3.228;2022-07-29T00:54:36;23.20;86.50
23065;DHT22;17153;51.212;3.228;2022-07-29T00:57:03;23.20;86.70
23065;DHT22;17153;51.212;3.228;2022-07-29T00:59:28;23.10;86.60
23065;DHT22;17153;51.212;3.228;2022-07-29T01:01:54;23.10;86.70
23065;DHT22;17153;51.212;3.228;2022-07-29T01:04:20;23.10;86.70
23065;DHT22;17153;51.212;3.228;2022-07-29T01:06:47;23.00;86.70
23065;DHT22;17153;51.212;3.228;2022-07-29T01:09:15;23.00;86.80
23065;DHT22;17153;51.212;3.228;2022-07-29T01:11:43;23.00;86.90
23065;DHT22;17153;51.212;3.228;2022-07-29T01:14:09;23.00;86.90
23065;DHT22;17153;51.212;3.228;2022-07-29T01:16:59;23.00;86.90
23065;DHT22;17153;51.212;3.228;2022-07-29T01:22:25;23.00;86.90
23065;DHT22;17153;51.212;3.228;2022-07-29T01:25:35;22.90;86.90
23065;DHT22;17153;51.212;3.228;2022-07-29T01:31:20;22.90;86.90
23065;DHT22;17153;51.212;3.228;2022-07-29T01:33:54;22.90;87.00
23065;DHT22;17153;51.212;3.228;2022-07-29T01:36:45;22.80;87.00
23065;DHT22;17153;51.212;3.228;2022-07-29T01:39:18;22.80;87.10
23065;DHT22;17153;51.212;3.228;2022-07-29T01:45:38;22.80;87.30
23065;DHT22;17153;51.212;3.228;2022-07-29T01:48:36;22.80;87.30
23065;DHT22;17153;51.212;3.228;2022-07-29T01:51:14;22.70;87.20
23065;DHT22;17153;51.212;3.228;2022-07-29T01:53:57;22.70;87.30
23065;DHT22;17153;51.212;3.228;2022-07-29T01:56:28;22.70;87.50
23065;DHT22;17153;51.212;3.228;2022-07-29T01:58:57;22.70;87.50
23065;DHT22;17153;51.212;3.228;2022-07-29T02:01:24;22.60;87.50
23065;DHT22;17153;51.212;3.228;2022-07-29T02:03:53;22.60;87.50
23065;DHT22;17153;51.212;3.228;2022-07-29T02:06:22;22.60;87.60
23065;DHT22;17153;51.212;3.228;2022-07-29T02:08:51;22.60;87.60
23065;DHT22;17153;51.212;3.228;2022-07-29T02:11:18;22.50;87.60
23065;DHT22;17153;51.212;3.228;2022-07-29T02:14:04;22.50;87.70
23065;DHT22;17153;51.212;3.228;2022-07-29T02:16:32;22.50;87.80
23065;DHT22;17153;51.212;3.228;2022-07-29T02:19:01;22.50;87.90
23065;DHT22;17153;51.212;3.228;2022-07-29T02:21:27;22.40;87.90
23065;DHT22;17153;51.212;3.228;2022-07-29T02:23:56;22.40;88.00
23065;DHT22;17153;51.212;3.228;2022-07-29T02:26:24;22.40;88.10
23065;DHT22;17153;51.212;3.228;2022-07-29T02:28:54;22.40;88.20
23065;DHT22;17153;51.212;3.228;2022-07-29T02:31:24;22.40;88.20
23065;DHT22;17153;51.212;3.228;2022-07-29T02:33:53;22.40;88.30
23065;DHT22;17153;51.212;3.228;2022-07-29T02:36:21;22.30;88.30
23065;DHT22;17153;51.212;3.228;2022-07-29T02:38:48;22.30;88.50
23065;DHT22;17153;51.212;3.228;2022-07-29T02:41:27;22.30;88.50
23065;DHT22;17153;51.212;3.228;2022-07-29T02:43:56;22.30;88.70
23065;DHT22;17153;51.212;3.228;2022-07-29T02:46:33;22.30;88.80
23065;DHT22;17153;51.212;3.228;2022-07-29T02:49:09;22.20;88.80
23065;DHT22;17153;51.212;3.228;2022-07-29T02:51:45;22.20;88.80
23065;DHT22;17153;51.212;3.228;2022-07-29T02:54:22;22.20;88.90
23065;DHT22;17153;51.212;3.228;2022-07-29T02:56:49;22.20;88.90
23065;DHT22;17153;51.212;3.228;2022-07-29T02:59:21;22.20;88.90
23065;DHT22;17153;51.212;3.228;2022-07-29T03:01:47;22.20;89.10
23065;DHT22;17153;51.212;3.228;2022-07-29T03:04:15;22.10;89.10
23065;DHT22;17153;51.212;3.228;2022-07-29T03:06:43;22.10;89.20
23065;DHT22;17153;51.212;3.228;2022-07-29T03:09:10;22.10;89.40
23065;DHT22;17153;51.212;3.228;2022-07-29T03:11:37;22.10;89.30
23065;DHT22;17153;51.212;3.228;2022-07-29T03:14:04;22.10;89.30
23065;DHT22;17153;51.212;3.228;2022-07-29T03:16:31;22.10;89.40
23065;DHT22;17153;51.212;3.228;2022-07-29T03:18:57;22.10;89.50
23065;DHT22;17153;51.212;3.228;2022-07-29T03:21:23;22.00;89.50
23065;DHT22;17153;51.212;3.228;2022-07-29T03:24:02;22.00;89.60
23065;DHT22;17153;51.212;3.228;2022-07-29T03:26:38;22.00;89.80
23065;DHT22;17153;51.212;3.228;2022-07-29T03:29:05;22.00;89.80
23065;DHT22;17153;51.212;3.228;2022-07-29T03:31:38;22.00;89.80
23065;DHT22;17153;51.212;3.228;2022-07-29T03:34:15;22.00;90.00
23065;DHT22;17153;51.212;3.228;2022-07-29T03:37:04;21.90;90.00
23065;DHT22;17153;51.212;3.228;2022-07-29T03:39:35;21.90;90.00
23065;DHT22;17153;51.212;3.228;2022-07-29T03:42:03;21.90;90.00
23065;DHT22;17153;51.212;3.228;2022-07-29T03:44:30;21.90;90.10
23065;DHT22;17153;51.212;3.228;2022-07-29T03:46:59;21.90;90.10
23065;DHT22;17153;51.212;3.228;2022-07-29T03:49:27;21.90;90.10
23065;DHT22;17153;51.212;3.228;2022-07-29T03:51:54;21.90;90.10
23065;DHT22;17153;51.212;3.228;2022-07-29T03:54:20;21.90;90.20
23065;DHT22;17153;51.212;3.228;2022-07-29T03:56:48;21.80;90.20
23065;DHT22;17153;51.212;3.228;2022-07-29T03:59:15;21.80;90.20
23065;DHT22;17153;51.212;3.228;2022-07-29T04:01:43;21.80;90.30
23065;DHT22;17153;51.212;3.228;2022-07-29T04:04:09;21.80;90.30
23065;DHT22;17153;51.212;3.228;2022-07-29T04:06:42;21.80;90.30
23065;DHT22;17153;51.212;3.228;2022-07-29T04:09:10;21.80;90.30
23065;DHT22;17153;51.212;3.228;2022-07-29T04:11:36;21.80;90.30
23065;DHT22;17153;51.212;3.228;2022-07-29T04:14:03;21.80;90.40
23065;DHT22;17153;51.212;3.228;2022-07-29T04:16:29;21.80;90.40
23065;DHT22;17153;51.212;3.228;2022-07-29T04:18:55;21.70;90.40
23065;DHT22;17153;51.212;3.228;2022-07-29T04:21:21;21.70;90.40
23065;DHT22;17153;51.212;3.228;2022-07-29T04:23:47;21.70;90.40
23065;DHT22;17153;51.212;3.228;2022-07-29T04:26:18;21.70;90.40
23065;DHT22;17153;51.212;3.228;2022-07-29T04:28:45;21.70;90.40
23065;DHT22;17153;51.212;3.228;2022-07-29T04:31:12;21.70;90.50
23065;DHT22;17153;51.212;3.228;2022-07-29T04:33:38;21.70;90.50
23065;DHT22;17153;51.212;3.228;2022-07-29T04:36:04;21.70;90.60
23065;DHT22;17153;51.212;3.228;2022-07-29T04:38:29;21.60;90.60
23065;DHT22;17153;51.212;3.228;2022-07-29T04:40:55;21.60;90.70
23065;DHT22;17153;51.212;3.228;2022-07-29T04:43:21;21.60;90.80
23065;DHT22;17153;51.212;3.228;2022-07-29T04:45:46;21.60;90.80
23065;DHT22;17153;51.212;3.228;2022-07-29T04:48:12;21.60;90.80
23065;DHT22;17153;51.212;3.228;2022-07-29T04:50:38;21.60;90.90
23065;DHT22;17153;51.212;3.228;2022-07-29T04:53:06;21.60;90.90
23065;DHT22;17153;51.212;3.228;2022-07-29T04:56:03;21.60;91.00
23065;DHT22;17153;51.212;3.228;2022-07-29T04:58:55;21.60;91.00
23065;DHT22;17153;51.212;3.228;2022-07-29T05:01:26;21.50;91.10
23065;DHT22;17153;51.212;3.228;2022-07-29T05:07:31;21.50;91.20
23065;DHT22;17153;51.212;3.228;2022-07-29T05:09:57;21.40;91.30
23065;DHT22;17153;51.212;3.228;2022-07-29T05:15:45;21.40;91.40
23065;DHT22;17153;51.212;3.228;2022-07-29T05:21:28;21.40;91.50
23065;DHT22;17153;51.212;3.228;2022-07-29T05:24:08;21.40;91.50
23065;DHT22;17153;51.212;3.228;2022-07-29T05:26:43;21.40;91.50
23065;DHT22;17153;51.212;3.228;2022-07-29T05:32:31;21.40;91.50
23065;DHT22;17153;51.212;3.228;2022-07-29T05:38:18;21.50;91.50
23065;DHT22;17153;51.212;3.228;2022-07-29T05:41:03;21.50;91.50
23065;DHT22;17153;51.212;3.228;2022-07-29T05:43:35;21.60;91.60
23065;DHT22;17153;51.212;3.228;2022-07-29T05:46:03;21.50;91.60
23065;DHT22;17153;51.212;3.228;2022-07-29T05:48:51;21.50;91.70
23065;DHT22;17153;51.212;3.228;2022-07-29T06:04:22;21.60;91.90
23065;DHT22;17153;51.212;3.228;2022-07-29T06:06:48;21.60;92.00
23065;DHT22;17153;51.212;3.228;2022-07-29T06:09:13;21.70;92.00
23065;DHT22;17153;51.212;3.228;2022-07-29T06:11:39;21.60;92.00
23065;DHT22;17153;51.212;3.228;2022-07-29T06:14:05;21.60;92.10
23065;DHT22;17153;51.212;3.228;2022-07-29T06:16:30;21.70;92.10
23065;DHT22;17153;51.212;3.228;2022-07-29T06:18:56;21.70;92.10
23065;DHT22;17153;51.212;3.228;2022-07-29T06:21:22;21.70;92.00
23065;DHT22;17153;51.212;3.228;2022-07-29T06:23:47;21.80;92.10
23065;DHT22;17153;51.212;3.228;2022-07-29T06:26:13;21.80;92.00
23065;DHT22;17153;51.212;3.228;2022-07-29T06:28:39;21.80;92.00
23065;DHT22;17153;51.212;3.228;2022-07-29T06:31:05;21.80;91.90
23065;DHT22;17153;51.212;3.228;2022-07-29T06:33:31;21.80;92.00
23065;DHT22;17153;51.212;3.228;2022-07-29T06:35:56;21.80;92.00
23065;DHT22;17153;51.212;3.228;2022-07-29T06:38:22;21.90;92.00
23065;DHT22;17153;51.212;3.228;2022-07-29T06:40:51;21.90;92.00
23065;DHT22;17153;51.212;3.228;2022-07-29T06:43:27;21.90;92.10
23065;DHT22;17153;51.212;3.228;2022-07-29T06:45:53;21.90;92.00
23065;DHT22;17153;51.212;3.228;2022-07-29T06:48:18;21.90;92.10
23065;DHT22;17153;51.212;3.228;2022-07-29T06:50:44;22.00;92.20
23065;DHT22;17153;51.212;3.228;2022-07-29T06:53:10;22.00;92.20
23065;DHT22;17153;51.212;3.228;2022-07-29T06:55:35;22.00;92.20
23065;DHT22;17153;51.212;3.228;2022-07-29T06:58:02;22.00;92.20
23065;DHT22;17153;51.212;3.228;2022-07-29T07:00:28;22.00;92.20
23065;DHT22;17153;51.212;3.228;2022-07-29T07:02:53;22.00;92.10
23065;DHT22;17153;51.212;3.228;2022-07-29T07:05:19;22.00;92.10
23065;DHT22;17153;51.212;3.228;2022-07-29T07:07:45;22.00;92.10
23065;DHT22;17153;51.212;3.228;2022-07-29T07:10:10;22.10;92.10
23065;DHT22;17153;51.212;3.228;2022-07-29T07:12:36;22.10;92.00
23065;DHT22;17153;51.212;3.228;2022-07-29T07:15:02;22.10;92.10
23065;DHT22;17153;51.212;3.228;2022-07-29T07:17:29;22.10;92.10
23065;DHT22;17153;51.212;3.228;2022-07-29T07:19:55;22.20;92.20
23065;DHT22;17153;51.212;3.228;2022-07-29T07:22:20;22.20;92.20
23065;DHT22;17153;51.212;3.228;2022-07-29T07:24:48;22.20;92.10
23065;DHT22;17153;51.212;3.228;2022-07-29T07:27:14;22.20;92.20
23065;DHT22;17153;51.212;3.228;2022-07-29T07:29:39;22.20;92.20
23065;DHT22;17153;51.212;3.228;2022-07-29T07:32:07;22.20;92.40
23065;DHT22;17153;51.212;3.228;2022-07-29T07:34:33;22.20;92.50
23065;DHT22;17153;51.212;3.228;2022-07-29T07:36:58;22.20;92.40
23065;DHT22;17153;51.212;3.228;2022-07-29T07:39:24;22.30;92.30
23065;DHT22;17153;51.212;3.228;2022-07-29T07:41:52;22.30;92.40
23065;DHT22;17153;51.212;3.228;2022-07-29T07:44:17;22.30;92.30
23065;DHT22;17153;51.212;3.228;2022-07-29T07:46:43;22.30;92.30
23065;DHT22;17153;51.212;3.228;2022-07-29T07:49:10;22.40;92.30
23065;DHT22;17153;51.212;3.228;2022-07-29T07:51:36;22.30;92.30
23065;DHT22;17153;51.212;3.228;2022-07-29T07:54:02;22.20;92.50
23065;DHT22;17153;51.212;3.228;2022-07-29T07:56:29;22.40;92.40
23065;DHT22;17153;51.212;3.228;2022-07-29T07:58:54;22.40;92.30
23065;DHT22;17153;51.212;3.228;2022-07-29T08:01:21;22.40;92.20
23065;DHT22;17153;51.212;3.228;2022-07-29T08:03:49;22.50;92.20
23065;DHT22;17153;51.212;3.228;2022-07-29T08:06:15;22.50;92.00
23065;DHT22;17153;51.212;3.228;2022-07-29T08:08:41;22.60;91.90
23065;DHT22;17153;51.212;3.228;2022-07-29T08:11:06;22.60;91.80
23065;DHT22;17153;51.212;3.228;2022-07-29T08:13:32;22.60;91.80
23065;DHT22;17153;51.212;3.228;2022-07-29T08:16:01;22.60;91.80
23065;DHT22;17153;51.212;3.228;2022-07-29T08:18:29;22.60;91.90
23065;DHT22;17153;51.212;3.228;2022-07-29T08:20:55;22.70;91.80
23065;DHT22;17153;51.212;3.228;2022-07-29T08:23:21;22.70;91.80
23065;DHT22;17153;51.212;3.228;2022-07-29T08:25:49;22.80;91.90
23065;DHT22;17153;51.212;3.228;2022-07-29T08:28:14;22.80;91.80
23065;DHT22;17153;51.212;3.228;2022-07-29T08:30:40;22.90;91.70
23065;DHT22;17153;51.212;3.228;2022-07-29T08:33:06;22.90;91.40
23065;DHT22;17153;51.212;3.228;2022-07-29T08:35:31;22.90;91.20
23065;DHT22;17153;51.212;3.228;2022-07-29T08:37:57;22.90;91.00
23065;DHT22;17153;51.212;3.228;2022-07-29T08:40:24;23.00;90.60
23065;DHT22;17153;51.212;3.228;2022-07-29T08:42:50;23.00;91.10
23065;DHT22;17153;51.212;3.228;2022-07-29T08:45:16;23.00;90.70
23065;DHT22;17153;51.212;3.228;2022-07-29T08:47:45;23.20;90.50
23065;DHT22;17153;51.212;3.228;2022-07-29T08:50:12;23.20;90.50
23065;DHT22;17153;51.212;3.228;2022-07-29T08:52:39;23.30;90.50
23065;DHT22;17153;51.212;3.228;2022-07-29T08:55:07;23.50;90.40
23065;DHT22;17153;51.212;3.228;2022-07-29T08:57:34;23.50;90.00
23065;DHT22;17153;51.212;3.228;2022-07-29T09:00:01;23.60;89.30
23065;DHT22;17153;51.212;3.228;2022-07-29T09:02:29;23.80;88.60
23065;DHT22;17153;51.212;3.228;2022-07-29T09:05:00;23.90;89.00
23065;DHT22;17153;51.212;3.228;2022-07-29T09:07:26;24.00;89.20
23065;DHT22;17153;51.212;3.228;2022-07-29T09:09:52;24.10;88.80
23065;DHT22;17153;51.212;3.228;2022-07-29T09:12:18;24.30;88.90
23065;DHT22;17153;51.212;3.228;2022-07-29T09:14:45;24.30;88.50
23065;DHT22;17153;51.212;3.228;2022-07-29T09:17:10;24.40;88.20
23065;DHT22;17153;51.212;3.228;2022-07-29T09:19:37;24.60;88.20
23065;DHT22;17153;51.212;3.228;2022-07-29T09:22:08;24.70;87.90
23065;DHT22;17153;51.212;3.228;2022-07-29T09:24:43;24.90;87.60
23065;DHT22;17153;51.212;3.228;2022-07-29T09:27:29;24.90;87.50
23065;DHT22;17153;51.212;3.228;2022-07-29T09:32:27;25.20;87.20
23065;DHT22;17153;51.212;3.228;2022-07-29T09:35:26;25.30;86.80
23065;DHT22;17153;51.212;3.228;2022-07-29T09:37:52;25.40;86.50
23065;DHT22;17153;51.212;3.228;2022-07-29T09:40:23;25.70;85.80
23065;DHT22;17153;51.212;3.228;2022-07-29T09:42:50;25.70;85.60
23065;DHT22;17153;51.212;3.228;2022-07-29T09:45:37;25.80;85.00
23065;DHT22;17153;51.212;3.228;2022-07-29T09:48:20;25.90;84.70
23065;DHT22;17153;51.212;3.228;2022-07-29T09:50:46;26.00;83.70
23065;DHT22;17153;51.212;3.228;2022-07-29T09:53:34;26.00;84.30
23065;DHT22;17153;51.212;3.228;2022-07-29T09:56:00;26.10;83.90
23065;DHT22;17153;51.212;3.228;2022-07-29T09:58:26;26.30;82.70
23065;DHT22;17153;51.212;3.228;2022-07-29T10:00:53;26.40;82.90
23065;DHT22;17153;51.212;3.228;2022-07-29T10:03:20;26.50;82.40
23065;DHT22;17153;51.212;3.228;2022-07-29T10:05:47;26.50;82.70
23065;DHT22;17153;51.212;3.228;2022-07-29T10:08:29;26.70;82.50
23065;DHT22;17153;51.212;3.228;2022-07-29T10:11:12;26.70;81.80
23065;DHT22;17153;51.212;3.228;2022-07-29T10:13:39;26.90;80.00
23065;DHT22;17153;51.212;3.228;2022-07-29T10:16:06;26.90;79.20
23065;DHT22;17153;51.212;3.228;2022-07-29T10:18:32;27.00;79.50
23065;DHT22;17153;51.212;3.228;2022-07-29T10:20:59;27.10;80.00
23065;DHT22;17153;51.212;3.228;2022-07-29T10:23:27;27.20;80.30
23065;DHT22;17153;51.212;3.228;2022-07-29T10:25:54;27.30;79.60
23065;DHT22;17153;51.212;3.228;2022-07-29T10:28:20;27.40;79.00
23065;DHT22;17153;51.212;3.228;2022-07-29T10:30:47;27.50;78.70
23065;DHT22;17153;51.212;3.228;2022-07-29T10:38:51;28.00;78.50
23065;DHT22;17153;51.212;3.228;2022-07-29T10:44:21;28.20;76.30
23065;DHT22;17153;51.212;3.228;2022-07-29T10:46:48;28.30;75.90
23065;DHT22;17153;51.212;3.228;2022-07-29T10:49:14;28.40;76.10
23065;DHT22;17153;51.212;3.228;2022-07-29T10:57:25;28.80;77.00
23065;DHT22;17153;51.212;3.228;2022-07-29T11:02:41;29.00;76.80
23065;DHT22;17153;51.212;3.228;2022-07-29T11:05:20;29.10;76.40
23065;DHT22;17153;51.212;3.228;2022-07-29T11:16:08;29.50;75.40
23065;DHT22;17153;51.212;3.228;2022-07-29T11:18:34;29.50;74.80
23065;DHT22;17153;51.212;3.228;2022-07-29T11:21:35;29.70;73.40
23065;DHT22;17153;51.212;3.228;2022-07-29T11:24:26;29.80;73.30
23065;DHT22;17153;51.212;3.228;2022-07-29T11:30:08;29.90;73.60
23065;DHT22;17153;51.212;3.228;2022-07-29T11:32:52;30.00;73.10
23065;DHT22;17153;51.212;3.228;2022-07-29T11:38:26;30.10;72.80
23065;DHT22;17153;51.212;3.228;2022-07-29T11:43:50;30.30;72.30
23065;DHT22;17153;51.212;3.228;2022-07-29T11:46:43;30.30;71.20
23065;DHT22;17153;51.212;3.228;2022-07-29T11:49:10;30.50;70.90
23065;DHT22;17153;51.212;3.228;2022-07-29T11:51:37;30.50;71.80
23065;DHT22;17153;51.212;3.228;2022-07-29T11:54:04;30.60;71.80
23065;DHT22;17153;51.212;3.228;2022-07-29T11:56:31;30.70;71.00
23065;DHT22;17153;51.212;3.228;2022-07-29T11:59:04;30.70;70.90
23065;DHT22;17153;51.212;3.228;2022-07-29T12:01:30;30.80;69.40
23065;DHT22;17153;51.212;3.228;2022-07-29T12:04:05;30.80;68.90
23065;DHT22;17153;51.212;3.228;2022-07-29T12:06:35;30.90;69.10
23065;DHT22;17153;51.212;3.228;2022-07-29T12:09:11;30.90;69.10
23065;DHT22;17153;51.212;3.228;2022-07-29T12:11:37;30.90;68.50
23065;DHT22;17153;51.212;3.228;2022-07-29T12:14:02;31.10;68.20
23065;DHT22;17153;51.212;3.228;2022-07-29T12:16:37;31.00;68.50
23065;DHT22;17153;51.212;3.228;2022-07-29T12:19:04;31.10;70.00
23065;DHT22;17153;51.212;3.228;2022-07-29T12:21:44;31.10;69.80
23065;DHT22;17153;51.212;3.228;2022-07-29T12:24:10;31.20;70.10
23065;DHT22;17153;51.212;3.228;2022-07-29T12:26:36;31.20;69.40
23065;DHT22;17153;51.212;3.228;2022-07-29T12:29:02;31.20;68.30
23065;DHT22;17153;51.212;3.228;2022-07-29T12:31:28;31.20;68.70
23065;DHT22;17153;51.212;3.228;2022-07-29T12:33:54;31.30;69.00
23065;DHT22;17153;51.212;3.228;2022-07-29T12:36:20;31.40;68.90
23065;DHT22;17153;51.212;3.228;2022-07-29T12:38:46;31.40;68.50
23065;DHT22;17153;51.212;3.228;2022-07-29T12:41:13;31.50;68.40
23065;DHT22;17153;51.212;3.228;2022-07-29T12:43:52;31.60;68.20
23065;DHT22;17153;51.212;3.228;2022-07-29T12:46:18;31.50;68.50
23065;DHT22;17153;51.212;3.228;2022-07-29T12:48:43;31.50;68.40
23065;DHT22;17153;51.212;3.228;2022-07-29T12:51:11;31.50;68.20
23065;DHT22;17153;51.212;3.228;2022-07-29T12:53:39;31.50;68.90
23065;DHT22;17153;51.212;3.228;2022-07-29T12:56:06;31.40;68.50
23065;DHT22;17153;51.212;3.228;2022-07-29T12:58:39;31.20;68.10
23065;DHT22;17153;51.212;3.228;2022-07-29T13:11:30;31.30;68.70
23065;DHT22;17153;51.212;3.228;2022-07-29T13:13:56;31.40;68.80
23065;DHT22;17153;51.212;3.228;2022-07-29T13:16:22;31.40;69.50
23065;DHT22;17153;51.212;3.228;2022-07-29T13:18:47;31.40;69.10
23065;DHT22;17153;51.212;3.228;2022-07-29T13:21:15;31.50;69.40
23065;DHT22;17153;51.212;3.228;2022-07-29T13:23:41;31.50;68.50
23065;DHT22;17153;51.212;3.228;2022-07-29T13:26:09;31.40;68.60
23065;DHT22;17153;51.212;3.228;2022-07-29T13:28:34;31.40;68.70
23065;DHT22;17153;51.212;3.228;2022-07-29T13:31:00;31.50;69.70
23065;DHT22;17153;51.212;3.228;2022-07-29T13:33:26;31.40;70.20
23065;DHT22;17153;51.212;3.228;2022-07-29T13:35:52;31.50;70.50
23065;DHT22;17153;51.212;3.228;2022-07-29T13:38:17;31.40;70.00
23065;DHT22;17153;51.212;3.228;2022-07-29T13:40:43;31.40;70.20
23065;DHT22;17153;51.212;3.228;2022-07-29T13:43:12;31.40;70.80
23065;DHT22;17153;51.212;3.228;2022-07-29T13:45:38;31.30;70.70
23065;DHT22;17153;51.212;3.228;2022-07-29T13:48:04;31.30;71.50
23065;DHT22;17153;51.212;3.228;2022-07-29T13:50:31;31.30;71.40
23065;DHT22;17153;51.212;3.228;2022-07-29T13:52:57;31.30;71.10
23065;DHT22;17153;51.212;3.228;2022-07-29T13:55:23;31.30;71.50
23065;DHT22;17153;51.212;3.228;2022-07-29T13:57:49;31.30;72.00
23065;DHT22;17153;51.212;3.228;2022-07-29T14:00:15;31.20;72.30
23065;DHT22;17153;51.212;3.228;2022-07-29T14:02:41;31.10;72.70
23065;DHT22;17153;51.212;3.228;2022-07-29T14:05:08;31.20;73.50
23065;DHT22;17153;51.212;3.228;2022-07-29T14:07:35;31.20;73.00
23065;DHT22;17153;51.212;3.228;2022-07-29T14:10:03;31.10;73.00
23065;DHT22;17153;51.212;3.228;2022-07-29T14:12:29;31.00;72.50
23065;DHT22;17153;51.212;3.228;2022-07-29T14:14:54;30.90;72.60
23065;DHT22;17153;51.212;3.228;2022-07-29T14:17:20;31.00;72.60
23065;DHT22;17153;51.212;3.228;2022-07-29T14:19:46;30.90;73.00
23065;DHT22;17153;51.212;3.228;2022-07-29T14:22:11;30.80;72.90
23065;DHT22;17153;51.212;3.228;2022-07-29T14:24:38;30.80;73.50
23065;DHT22;17153;51.212;3.228;2022-07-29T14:27:05;30.70;73.90
23065;DHT22;17153;51.212;3.228;2022-07-29T14:29:31;30.40;74.50
23065;DHT22;17153;51.212;3.228;2022-07-29T14:31:57;30.40;74.70
23065;DHT22;17153;51.212;3.228;2022-07-29T14:34:22;30.40;74.30
23065;DHT22;17153;51.212;3.228;2022-07-29T14:36:48;30.50;74.60
23065;DHT22;17153;51.212;3.228;2022-07-29T14:39:14;30.40;74.50
23065;DHT22;17153;51.212;3.228;2022-07-29T14:41:41;30.30;74.50
23065;DHT22;17153;51.212;3.228;2022-07-29T14:44:06;30.40;74.20
23065;DHT22;17153;51.212;3.228;2022-07-29T14:46:32;30.20;74.70
23065;DHT22;17153;51.212;3.228;2022-07-29T14:48:58;30.20;74.80
23065;DHT22;17153;51.212;3.228;2022-07-29T14:51:23;30.20;74.50
23065;DHT22;17153;51.212;3.228;2022-07-29T14:54:20;30.20;74.40
23065;DHT22;17153;51.212;3.228;2022-07-29T14:56:46;30.10;74.10
23065;DHT22;17153;51.212;3.228;2022-07-29T14:59:14;30.10;74.60
23065;DHT22;17153;51.212;3.228;2022-07-29T15:01:40;30.10;74.10
23065;DHT22;17153;51.212;3.228;2022-07-29T15:04:05;30.00;74.00
23065;DHT22;17153;51.212;3.228;2022-07-29T15:06:31;30.00;74.50
23065;DHT22;17153;51.212;3.228;2022-07-29T15:08:57;30.00;74.80
23065;DHT22;17153;51.212;3.228;2022-07-29T15:11:22;29.90;74.90
23065;DHT22;17153;51.212;3.228;2022-07-29T15:13:48;29.90;75.60
23065;DHT22;17153;51.212;3.228;2022-07-29T15:16:14;29.90;76.10
23065;DHT22;17153;51.212;3.228;2022-07-29T15:18:39;29.80;75.90
23065;DHT22;17153;51.212;3.228;2022-07-29T15:21:05;29.80;75.80
23065;DHT22;17153;51.212;3.228;2022-07-29T15:23:32;29.60;75.70
23065;DHT22;17153;51.212;3.228;2022-07-29T15:25:58;29.60;75.60
23065;DHT22;17153;51.212;3.228;2022-07-29T15:28:24;29.50;75.80
23065;DHT22;17153;51.212;3.228;2022-07-29T15:30:50;29.50;76.10
23065;DHT22;17153;51.212;3.228;2022-07-29T15:33:15;29.50;76.10
23065;DHT22;17153;51.212;3.228;2022-07-29T15:35:41;29.50;76.00
23065;DHT22;17153;51.212;3.228;2022-07-29T15:38:07;29.50;76.00
23065;DHT22;17153;51.212;3.228;2022-07-29T15:40:33;29.30;76.00
23065;DHT22;17153;51.212;3.228;2022-07-29T15:42:59;29.40;76.40
23065;DHT22;17153;51.212;3.228;2022-07-29T15:45:35;29.30;76.30
23065;DHT22;17153;51.212;3.228;2022-07-29T15:48:01;29.30;76.30
23065;DHT22;17153;51.212;3.228;2022-07-29T15:50:27;29.30;76.20
23065;DHT22;17153;51.212;3.228;2022-07-29T15:52:52;29.20;76.60
23065;DHT22;17153;51.212;3.228;2022-07-29T15:55:18;29.20;76.60
23065;DHT22;17153;51.212;3.228;2022-07-29T15:57:44;29.00;76.00
23065;DHT22;17153;51.212;3.228;2022-07-29T16:00:10;29.00;76.50
23065;DHT22;17153;51.212;3.228;2022-07-29T16:02:36;29.00;76.70
23065;DHT22;17153;51.212;3.228;2022-07-29T16:05:02;29.00;76.80
23065;DHT22;17153;51.212;3.228;2022-07-29T16:07:28;29.00;76.20
23065;DHT22;17153;51.212;3.228;2022-07-29T16:09:53;28.70;75.00
23065;DHT22;17153;51.212;3.228;2022-07-29T16:12:19;28.70;75.10
23065;DHT22;17153;51.212;3.228;2022-07-29T16:14:45;28.70;75.00
23065;DHT22;17153;51.212;3.228;2022-07-29T16:17:13;28.60;76.00
23065;DHT22;17153;51.212;3.228;2022-07-29T16:19:39;28.60;76.00
23065;DHT22;17153;51.212;3.228;2022-07-29T16:22:04;28.50;76.20
23065;DHT22;17153;51.212;3.228;2022-07-29T16:24:30;28.40;75.90
23065;DHT22;17153;51.212;3.228;2022-07-29T16:26:57;28.40;75.10
23065;DHT22;17153;51.212;3.228;2022-07-29T16:29:23;28.40;75.50
23065;DHT22;17153;51.212;3.228;2022-07-29T16:31:48;28.10;75.70
23065;DHT22;17153;51.212;3.228;2022-07-29T16:34:14;28.10;75.70
23065;DHT22;17153;51.212;3.228;2022-07-29T16:36:40;28.00;75.90
23065;DHT22;17153;51.212;3.228;2022-07-29T16:39:05;27.90;76.70
23065;DHT22;17153;51.212;3.228;2022-07-29T16:41:31;27.80;77.10
23065;DHT22;17153;51.212;3.228;2022-07-29T16:43:57;27.60;78.30
23065;DHT22;17153;51.212;3.228;2022-07-29T16:46:23;27.60;78.40
23065;DHT22;17153;51.212;3.228;2022-07-29T16:48:49;27.50;78.50
23065;DHT22;17153;51.212;3.228;2022-07-29T16:51:15;27.60;78.90
23065;DHT22;17153;51.212;3.228;2022-07-29T16:53:41;27.60;77.50
23065;DHT22;17153;51.212;3.228;2022-07-29T16:56:08;27.50;76.60
23065;DHT22;17153;51.212;3.228;2022-07-29T16:58:34;27.40;78.20
23065;DHT22;17153;51.212;3.228;2022-07-29T17:01:00;27.40;77.00
23065;DHT22;17153;51.212;3.228;2022-07-29T17:03:25;27.10;77.50
23065;DHT22;17153;51.212;3.228;2022-07-29T17:05:51;27.20;77.90
23065;DHT22;17153;51.212;3.228;2022-07-29T17:08:17;27.20;77.30